sensor_id;sensor_type;location;lat;lon;timestamp;temperature;humidity
52725;DHT22;38621;52.830;6.914;2022-12-11T00:02:02;-1.40;99.90
52725;DHT22;38621;52.830;6.914;2022-12-11T00:04:29;-1.30;99.90
52725;DHT22;38621;52.830;6.914;2022-12-11T00:06:55;-1.30;99.90
52725;DHT22;38621;52.830;6.914;2022-12-11T00:09:21;-1.30;99.90
52725;DHT22;38621;52.830;6.914;2022-12-11T00:11:47;-1.30;99.90
52725;DHT22;38621;52.830;6.914;2022-12-11T00:14:14;-1.30;99.90
52725;DHT22;38621;52.830;6.914;2022-12-11T00:16:40;-1.20;99.90
52725;DHT22;38621;52.830;6.914;2022-12-11T00:19:06;-1.20;99.90
52725;DHT22;38621;52.830;6.914;2022-12-11T00:21:33;-1.20;99.90
52725;DHT22;38621;52.830;6.914;2022-12-11T00:23:59;-1.10;99.90
52725;DHT22;38621;52.830;6.914;2022-12-11T00:26:25;-1.10;99.90
52725;DHT22;38621;52.830;6.914;2022-12-11T00:28:53;-1.10;99.90
52725;DHT22;38621;52.830;6.914;2022-12-11T00:31:20;-1.10;99.90
52725;DHT22;38621;52.830;6.914;2022-12-11T00:33:46;-1.10;99.90
52725;DHT22;38621;52.830;6.914;2022-12-11T00:36:18;-1.00;99.90
52725;DHT22;38621;52.830;6.914;2022-12-11T00:38:44;-1.00;99.90
52725;DHT22;38621;52.830;6.914;2022-12-11T00:41:11;-1.00;99.90
52725;DHT22;38621;52.830;6.914;2022-12-11T00:43:37;-0.90;99.90
52725;DHT22;38621;52.830;6.914;2022-12-11T00:46:03;-0.90;99.90
52725;DHT22;38621;52.830;6.914;2022-12-11T00:48:29;-0.90;99.90
52725;DHT22;38621;52.830;6.914;2022-12-11T00:50:55;-0.80;99.90
52725;DHT22;38621;52.830;6.914;2022-12-11T00:53:21;-0.80;99.90
52725;DHT22;38621;52.830;6.914;2022-12-11T00:55:47;-0.80;99.90
52725;DHT22;38621;52.830;6.914;2022-12-11T00:58:13;-0.80;99.90
52725;DHT22;38621;52.830;6.914;2022-12-11T01:00:40;-0.80;99.90
52725;DHT22;38621;52.830;6.914;2022-12-11T01:03:06;-0.80;99.90
52725;DHT22;38621;52.830;6.914;2022-12-11T01:05:32;-0.80;99.90
52725;DHT22;38621;52.830;6.914;2022-12-11T01:07:59;-0.70;99.90
52725;DHT22;38621;52.830;6.914;2022-12-11T01:10:24;-0.80;99.90
52725;DHT22;38621;52.830;6.914;2022-12-11T01:15:27;-0.70;99.90
52725;DHT22;38621;52.830;6.914;2022-12-11T01:17:54;-0.70;99.90
52725;DHT22;38621;52.830;6.914;2022-12-11T01:20:21;-0.70;99.90
52725;DHT22;38621;52.830;6.914;2022-12-11T01:22:47;-0.70;99.90
52725;DHT22;38621;52.830;6.914;2022-12-11T01:25:13;-0.70;99.90
52725;DHT22;38621;52.830;6.914;2022-12-11T01:27:39;-0.70;99.90
52725;DHT22;38621;52.830;6.914;2022-12-11T01:30:07;-0.70;99.90
52725;DHT22;38621;52.830;6.914;2022-12-11T01:32:34;-0.70;99.90
52725;DHT22;38621;52.830;6.914;2022-12-11T01:35:02;-0.70;99.90
52725;DHT22;38621;52.830;6.914;2022-12-11T01:37:28;-0.70;99.90
52725;DHT22;38621;52.830;6.914;2022-12-11T01:39:55;-0.70;99.90
52725;DHT22;38621;52.830;6.914;2022-12-11T01:42:21;-0.70;99.90
52725;DHT22;38621;52.830;6.914;2022-12-11T01:47:12;-0.70;99.90
52725;DHT22;38621;52.830;6.914;2022-12-11T01:49:39;-0.60;99.90
52725;DHT22;38621;52.830;6.914;2022-12-11T01:52:13;-0.60;99.90
52725;DHT22;38621;52.830;6.914;2022-12-11T01:54:41;-0.60;99.90
52725;DHT22;38621;52.830;6.914;2022-12-11T01:57:09;-0.60;99.90
52725;DHT22;38621;52.830;6.914;2022-12-11T01:59:38;-0.60;99.90
52725;DHT22;38621;52.830;6.914;2022-12-11T02:02:14;-0.60;99.90
52725;DHT22;38621;52.830;6.914;2022-12-11T02:04:43;-0.60;99.90
52725;DHT22;38621;52.830;6.914;2022-12-11T02:07:10;-0.60;99.90
52725;DHT22;38621;52.830;6.914;2022-12-11T02:09:37;-0.50;99.90
52725;DHT22;38621;52.830;6.914;2022-12-11T02:12:23;-0.50;99.90
52725;DHT22;38621;52.830;6.914;2022-12-11T02:15:23;-0.50;99.90
52725;DHT22;38621;52.830;6.914;2022-12-11T02:29:19;-0.50;99.90
52725;DHT22;38621;52.830;6.914;2022-12-11T02:31:50;-0.50;99.90
52725;DHT22;38621;52.830;6.914;2022-12-11T02:36:51;0.60;99.90
52725;DHT22;38621;52.830;6.914;2022-12-11T02:39:20;-0.50;99.90
52725;DHT22;38621;52.830;6.914;2022-12-11T02:41:50;-0.50;99.90
52725;DHT22;38621;52.830;6.914;2022-12-11T02:44:19;-0.50;99.90
52725;DHT22;38621;52.830;6.914;2022-12-11T02:46:46;-0.50;99.90
52725;DHT22;38621;52.830;6.914;2022-12-11T02:49:12;-0.50;99.90
52725;DHT22;38621;52.830;6.914;2022-12-11T02:51:41;-0.50;99.90
52725;DHT22;38621;52.830;6.914;2022-12-11T02:54:15;-0.50;99.90
52725;DHT22;38621;52.830;6.914;2022-12-11T02:56:47;-0.50;99.90
52725;DHT22;38621;52.830;6.914;2022-12-11T02:59:19;-0.40;99.90
52725;DHT22;38621;52.830;6.914;2022-12-11T03:01:46;-0.40;99.90
52725;DHT22;38621;52.830;6.914;2022-12-11T03:04:12;-0.40;99.90
52725;DHT22;38621;52.830;6.914;2022-12-11T03:06:48;-0.40;99.90
52725;DHT22;38621;52.830;6.914;2022-12-11T03:09:15;-0.40;99.90
52725;DHT22;38621;52.830;6.914;2022-12-11T03:11:40;-0.40;99.90
52725;DHT22;38621;52.830;6.914;2022-12-11T03:14:07;-0.40;99.90
52725;DHT22;38621;52.830;6.914;2022-12-11T03:16:38;-0.40;99.90
52725;DHT22;38621;52.830;6.914;2022-12-11T03:21:47;-0.30;99.90
52725;DHT22;38621;52.830;6.914;2022-12-11T03:24:19;-0.30;99.90
52725;DHT22;38621;52.830;6.914;2022-12-11T03:26:53;-0.30;99.90
52725;DHT22;38621;52.830;6.914;2022-12-11T03:29:24;-0.20;99.90
52725;DHT22;38621;52.830;6.914;2022-12-11T03:31:57;-0.20;99.90
52725;DHT22;38621;52.830;6.914;2022-12-11T03:34:41;-0.20;99.90
52725;DHT22;38621;52.830;6.914;2022-12-11T03:37:10;-0.20;99.90
52725;DHT22;38621;52.830;6.914;2022-12-11T03:39:42;-0.10;99.90
52725;DHT22;38621;52.830;6.914;2022-12-11T03:42:12;-0.10;99.90
52725;DHT22;38621;52.830;6.914;2022-12-11T03:44:39;-0.10;99.90
52725;DHT22;38621;52.830;6.914;2022-12-11T03:47:07;-0.10;99.90
52725;DHT22;38621;52.830;6.914;2022-12-11T03:49:37;-0.10;99.90
52725;DHT22;38621;52.830;6.914;2022-12-11T03:52:05;-0.10;99.90
52725;DHT22;38621;52.830;6.914;2022-12-11T03:54:33;-0.10;99.90
52725;DHT22;38621;52.830;6.914;2022-12-11T03:57:00;0.00;99.90
52725;DHT22;38621;52.830;6.914;2022-12-11T03:59:27;0.00;99.90
52725;DHT22;38621;52.830;6.914;2022-12-11T04:01:53;0.00;99.90
52725;DHT22;38621;52.830;6.914;2022-12-11T04:04:19;0.00;99.90
52725;DHT22;38621;52.830;6.914;2022-12-11T04:06:45;0.00;99.90
52725;DHT22;38621;52.830;6.914;2022-12-11T04:09:10;0.10;99.90
52725;DHT22;38621;52.830;6.914;2022-12-11T04:11:36;0.10;99.90
52725;DHT22;38621;52.830;6.914;2022-12-11T04:14:06;0.00;99.90
52725;DHT22;38621;52.830;6.914;2022-12-11T04:16:51;0.10;99.90
52725;DHT22;38621;52.830;6.914;2022-12-11T04:19:18;0.00;99.90
52725;DHT22;38621;52.830;6.914;2022-12-11T04:22:03;0.10;99.90
52725;DHT22;38621;52.830;6.914;2022-12-11T04:24:57;0.00;99.90
52725;DHT22;38621;52.830;6.914;2022-12-11T04:27:23;0.10;99.90
52725;DHT22;38621;52.830;6.914;2022-12-11T04:30:12;0.10;99.90
52725;DHT22;38621;52.830;6.914;2022-12-11T04:32:38;0.10;99.90
52725;DHT22;38621;52.830;6.914;2022-12-11T04:35:06;0.00;99.90
52725;DHT22;38621;52.830;6.914;2022-12-11T04:37:32;0.10;99.90
52725;DHT22;38621;52.830;6.914;2022-12-11T04:39:58;0.10;99.90
52725;DHT22;38621;52.830;6.914;2022-12-11T04:42:23;0.10;99.90
52725;DHT22;38621;52.830;6.914;2022-12-11T04:44:49;0.10;99.90
52725;DHT22;38621;52.830;6.914;2022-12-11T04:47:15;0.10;99.90
52725;DHT22;38621;52.830;6.914;2022-12-11T04:49:41;0.10;99.90
52725;DHT22;38621;52.830;6.914;2022-12-11T04:52:07;0.10;99.90
52725;DHT22;38621;52.830;6.914;2022-12-11T04:54:33;0.10;99.90
52725;DHT22;38621;52.830;6.914;2022-12-11T04:56:59;0.00;99.90
52725;DHT22;38621;52.830;6.914;2022-12-11T04:59:25;0.00;99.90
52725;DHT22;38621;52.830;6.914;2022-12-11T05:01:50;0.00;99.90
52725;DHT22;38621;52.830;6.914;2022-12-11T05:04:16;0.00;99.90
52725;DHT22;38621;52.830;6.914;2022-12-11T05:06:42;0.00;99.90
52725;DHT22;38621;52.830;6.914;2022-12-11T05:09:11;-0.10;99.90
52725;DHT22;38621;52.830;6.914;2022-12-11T05:11:37;-0.10;99.90
52725;DHT22;38621;52.830;6.914;2022-12-11T05:14:03;-0.10;99.90
52725;DHT22;38621;52.830;6.914;2022-12-11T05:16:29;-0.20;99.90
52725;DHT22;38621;52.830;6.914;2022-12-11T05:18:55;-0.20;99.90
52725;DHT22;38621;52.830;6.914;2022-12-11T05:21:20;-0.10;99.90
52725;DHT22;38621;52.830;6.914;2022-12-11T05:23:46;-0.10;99.90
52725;DHT22;38621;52.830;6.914;2022-12-11T05:26:16;-0.10;99.90
52725;DHT22;38621;52.830;6.914;2022-12-11T05:28:42;-0.10;99.90
52725;DHT22;38621;52.830;6.914;2022-12-11T05:31:12;-0.20;99.90
52725;DHT22;38621;52.830;6.914;2022-12-11T05:33:38;-0.20;99.90
52725;DHT22;38621;52.830;6.914;2022-12-11T05:36:05;-0.20;99.90
52725;DHT22;38621;52.830;6.914;2022-12-11T05:38:31;-0.20;99.90
52725;DHT22;38621;52.830;6.914;2022-12-11T05:41:06;-0.20;99.90
52725;DHT22;38621;52.830;6.914;2022-12-11T05:43:34;-0.10;99.90
52725;DHT22;38621;52.830;6.914;2022-12-11T05:46:14;-0.10;99.90
52725;DHT22;38621;52.830;6.914;2022-12-11T05:48:41;-0.10;99.90
52725;DHT22;38621;52.830;6.914;2022-12-11T05:51:07;-0.10;99.90
52725;DHT22;38621;52.830;6.914;2022-12-11T05:53:36;-0.10;99.90
52725;DHT22;38621;52.830;6.914;2022-12-11T05:56:07;-0.10;99.90
52725;DHT22;38621;52.830;6.914;2022-12-11T05:58:36;0.00;99.90
52725;DHT22;38621;52.830;6.914;2022-12-11T06:01:06;0.00;99.90
52725;DHT22;38621;52.830;6.914;2022-12-11T06:03:32;0.00;99.90
52725;DHT22;38621;52.830;6.914;2022-12-11T06:06:01;0.00;99.90
52725;DHT22;38621;52.830;6.914;2022-12-11T06:08:27;0.10;99.90
52725;DHT22;38621;52.830;6.914;2022-12-11T06:10:53;0.10;99.90
52725;DHT22;38621;52.830;6.914;2022-12-11T06:13:19;0.10;99.90
52725;DHT22;38621;52.830;6.914;2022-12-11T06:15:45;0.20;99.90
52725;DHT22;38621;52.830;6.914;2022-12-11T06:18:10;0.10;99.90
52725;DHT22;38621;52.830;6.914;2022-12-11T06:20:36;0.10;99.90
52725;DHT22;38621;52.830;6.914;2022-12-11T06:23:02;0.10;99.90
52725;DHT22;38621;52.830;6.914;2022-12-11T06:25:28;0.20;99.90
52725;DHT22;38621;52.830;6.914;2022-12-11T06:27:54;0.20;99.90
52725;DHT22;38621;52.830;6.914;2022-12-11T06:30:20;0.10;99.90
52725;DHT22;38621;52.830;6.914;2022-12-11T06:32:46;0.10;99.90
52725;DHT22;38621;52.830;6.914;2022-12-11T06:35:12;0.10;99.90
52725;DHT22;38621;52.830;6.914;2022-12-11T06:37:38;0.20;99.90
52725;DHT22;38621;52.830;6.914;2022-12-11T06:40:05;0.20;99.90
52725;DHT22;38621;52.830;6.914;2022-12-11T06:42:31;0.20;99.90
52725;DHT22;38621;52.830;6.914;2022-12-11T06:44:58;0.10;99.90
52725;DHT22;38621;52.830;6.914;2022-12-11T06:47:25;0.20;99.90
52725;DHT22;38621;52.830;6.914;2022-12-11T06:49:51;0.10;99.90
52725;DHT22;38621;52.830;6.914;2022-12-11T06:52:18;0.70;99.90
52725;DHT22;38621;52.830;6.914;2022-12-11T06:54:44;0.10;99.90
52725;DHT22;38621;52.830;6.914;2022-12-11T06:57:10;0.10;99.90
52725;DHT22;38621;52.830;6.914;2022-12-11T06:59:35;0.00;99.90
52725;DHT22;38621;52.830;6.914;2022-12-11T07:02:03;0.10;99.90
52725;DHT22;38621;52.830;6.914;2022-12-11T07:04:28;0.10;99.90
52725;DHT22;38621;52.830;6.914;2022-12-11T07:06:56;0.10;99.90
52725;DHT22;38621;52.830;6.914;2022-12-11T07:09:22;0.10;99.90
52725;DHT22;38621;52.830;6.914;2022-12-11T07:11:51;0.80;99.90
52725;DHT22;38621;52.830;6.914;2022-12-11T07:14:18;0.10;99.90
52725;DHT22;38621;52.830;6.914;2022-12-11T07:16:44;0.20;99.90
52725;DHT22;38621;52.830;6.914;2022-12-11T07:19:09;0.20;99.90
52725;DHT22;38621;52.830;6.914;2022-12-11T07:21:35;0.20;99.90
52725;DHT22;38621;52.830;6.914;2022-12-11T07:24:01;0.20;99.90
52725;DHT22;38621;52.830;6.914;2022-12-11T07:26:27;0.20;99.90
52725;DHT22;38621;52.830;6.914;2022-12-11T07:28:56;0.30;99.90
52725;DHT22;38621;52.830;6.914;2022-12-11T07:31:23;0.50;99.90
52725;DHT22;38621;52.830;6.914;2022-12-11T07:34:00;0.30;99.90
52725;DHT22;38621;52.830;6.914;2022-12-11T07:36:27;0.30;99.90
52725;DHT22;38621;52.830;6.914;2022-12-11T07:38:53;0.30;99.90
52725;DHT22;38621;52.830;6.914;2022-12-11T07:41:19;0.30;99.90
52725;DHT22;38621;52.830;6.914;2022-12-11T07:43:45;0.30;99.90
52725;DHT22;38621;52.830;6.914;2022-12-11T07:46:14;0.30;99.90
52725;DHT22;38621;52.830;6.914;2022-12-11T07:48:41;0.30;99.90
52725;DHT22;38621;52.830;6.914;2022-12-11T07:51:14;0.30;99.90
52725;DHT22;38621;52.830;6.914;2022-12-11T07:53:44;0.30;99.90
52725;DHT22;38621;52.830;6.914;2022-12-11T07:56:10;0.30;99.90
52725;DHT22;38621;52.830;6.914;2022-12-11T07:58:36;0.30;99.90
52725;DHT22;38621;52.830;6.914;2022-12-11T08:01:04;0.40;99.90
52725;DHT22;38621;52.830;6.914;2022-12-11T08:03:30;0.40;99.90
52725;DHT22;38621;52.830;6.914;2022-12-11T08:05:56;0.40;99.90
52725;DHT22;38621;52.830;6.914;2022-12-11T08:08:21;0.40;99.90
52725;DHT22;38621;52.830;6.914;2022-12-11T08:10:47;0.30;99.90
52725;DHT22;38621;52.830;6.914;2022-12-11T08:13:13;0.30;99.90
52725;DHT22;38621;52.830;6.914;2022-12-11T08:15:39;0.30;99.90
52725;DHT22;38621;52.830;6.914;2022-12-11T08:18:05;0.30;99.90
52725;DHT22;38621;52.830;6.914;2022-12-11T08:20:31;0.30;99.90
52725;DHT22;38621;52.830;6.914;2022-12-11T08:22:56;0.30;99.90
52725;DHT22;38621;52.830;6.914;2022-12-11T08:25:22;0.30;99.90
52725;DHT22;38621;52.830;6.914;2022-12-11T08:27:48;0.30;99.90
52725;DHT22;38621;52.830;6.914;2022-12-11T08:30:14;0.30;99.90
52725;DHT22;38621;52.830;6.914;2022-12-11T08:32:40;0.30;99.90
52725;DHT22;38621;52.830;6.914;2022-12-11T08:35:06;0.30;99.90
52725;DHT22;38621;52.830;6.914;2022-12-11T08:37:33;0.30;99.90
52725;DHT22;38621;52.830;6.914;2022-12-11T08:39:59;0.30;99.90
52725;DHT22;38621;52.830;6.914;2022-12-11T08:42:25;0.30;99.90
52725;DHT22;38621;52.830;6.914;2022-12-11T08:44:50;0.30;99.90
52725;DHT22;38621;52.830;6.914;2022-12-11T08:47:16;0.30;99.90
52725;DHT22;38621;52.830;6.914;2022-12-11T08:49:42;0.30;99.90
52725;DHT22;38621;52.830;6.914;2022-12-11T08:52:08;0.30;99.90
52725;DHT22;38621;52.830;6.914;2022-12-11T08:54:36;0.30;99.90
52725;DHT22;38621;52.830;6.914;2022-12-11T08:57:01;0.30;99.90
52725;DHT22;38621;52.830;6.914;2022-12-11T08:59:27;0.30;99.90
52725;DHT22;38621;52.830;6.914;2022-12-11T09:01:54;0.30;99.90
52725;DHT22;38621;52.830;6.914;2022-12-11T09:04:19;0.40;99.90
52725;DHT22;38621;52.830;6.914;2022-12-11T09:06:45;0.40;99.90
52725;DHT22;38621;52.830;6.914;2022-12-11T09:09:11;0.40;99.90
52725;DHT22;38621;52.830;6.914;2022-12-11T09:11:37;0.40;99.90
52725;DHT22;38621;52.830;6.914;2022-12-11T09:14:04;0.40;99.90
52725;DHT22;38621;52.830;6.914;2022-12-11T09:16:30;0.40;99.90
52725;DHT22;38621;52.830;6.914;2022-12-11T09:18:57;0.40;99.90
52725;DHT22;38621;52.830;6.914;2022-12-11T09:21:28;0.50;99.90
52725;DHT22;38621;52.830;6.914;2022-12-11T09:23:56;0.50;99.90
52725;DHT22;38621;52.830;6.914;2022-12-11T09:26:23;0.40;99.90
52725;DHT22;38621;52.830;6.914;2022-12-11T09:28:49;0.50;99.90
52725;DHT22;38621;52.830;6.914;2022-12-11T09:31:21;0.50;99.90
52725;DHT22;38621;52.830;6.914;2022-12-11T09:33:52;0.50;99.90
52725;DHT22;38621;52.830;6.914;2022-12-11T09:36:18;0.50;99.90
52725;DHT22;38621;52.830;6.914;2022-12-11T09:38:44;0.50;99.90
52725;DHT22;38621;52.830;6.914;2022-12-11T09:41:28;0.50;99.90
52725;DHT22;38621;52.830;6.914;2022-12-11T09:46:44;0.50;99.90
52725;DHT22;38621;52.830;6.914;2022-12-11T09:54:22;0.60;99.90
52725;DHT22;38621;52.830;6.914;2022-12-11T10:05:12;0.60;99.90
52725;DHT22;38621;52.830;6.914;2022-12-11T10:16:04;0.60;99.90
52725;DHT22;38621;52.830;6.914;2022-12-11T10:18:35;0.60;99.90
52725;DHT22;38621;52.830;6.914;2022-12-11T10:21:02;0.60;99.90
52725;DHT22;38621;52.830;6.914;2022-12-11T10:26:18;0.60;99.90
52725;DHT22;38621;52.830;6.914;2022-12-11T10:28:44;0.70;99.90
52725;DHT22;38621;52.830;6.914;2022-12-11T10:36:54;0.70;99.90
52725;DHT22;38621;52.830;6.914;2022-12-11T10:39:21;0.70;99.90
52725;DHT22;38621;52.830;6.914;2022-12-11T10:41:51;0.80;99.90
52725;DHT22;38621;52.830;6.914;2022-12-11T10:47:04;0.70;99.90
52725;DHT22;38621;52.830;6.914;2022-12-11T10:49:33;0.70;99.90
52725;DHT22;38621;52.830;6.914;2022-12-11T10:52:00;0.70;99.90
52725;DHT22;38621;52.830;6.914;2022-12-11T10:56:58;0.70;99.90
52725;DHT22;38621;52.830;6.914;2022-12-11T10:59:48;0.70;99.90
52725;DHT22;38621;52.830;6.914;2022-12-11T11:02:22;0.70;99.90
52725;DHT22;38621;52.830;6.914;2022-12-11T11:04:49;0.70;99.90
52725;DHT22;38621;52.830;6.914;2022-12-11T11:07:29;0.70;99.90
52725;DHT22;38621;52.830;6.914;2022-12-11T11:12:38;0.80;99.90
52725;DHT22;38621;52.830;6.914;2022-12-11T11:15:09;0.80;99.90
52725;DHT22;38621;52.830;6.914;2022-12-11T11:17:50;0.70;99.90
52725;DHT22;38621;52.830;6.914;2022-12-11T11:20:18;0.80;99.90
52725;DHT22;38621;52.830;6.914;2022-12-11T11:22:56;0.80;99.90
52725;DHT22;38621;52.830;6.914;2022-12-11T11:25:28;0.80;99.90
52725;DHT22;38621;52.830;6.914;2022-12-11T11:30:33;0.80;99.90
52725;DHT22;38621;52.830;6.914;2022-12-11T11:33:09;0.80;99.90
52725;DHT22;38621;52.830;6.914;2022-12-11T11:35:37;0.80;99.90
52725;DHT22;38621;52.830;6.914;2022-12-11T11:38:20;0.80;99.90
52725;DHT22;38621;52.830;6.914;2022-12-11T11:46:16;1.10;99.90
52725;DHT22;38621;52.830;6.914;2022-12-11T11:49:20;0.80;99.90
52725;DHT22;38621;52.830;6.914;2022-12-11T11:52:00;0.80;99.90
52725;DHT22;38621;52.830;6.914;2022-12-11T11:54:34;0.90;99.90
52725;DHT22;38621;52.830;6.914;2022-12-11T11:57:14;0.90;99.90
52725;DHT22;38621;52.830;6.914;2022-12-11T11:59:48;0.90;99.90
52725;DHT22;38621;52.830;6.914;2022-12-11T12:02:17;0.90;99.90
52725;DHT22;38621;52.830;6.914;2022-12-11T12:04:46;0.90;99.90
52725;DHT22;38621;52.830;6.914;2022-12-11T12:10:21;0.90;99.90
52725;DHT22;38621;52.830;6.914;2022-12-11T12:12:51;0.90;99.90
52725;DHT22;38621;52.830;6.914;2022-12-11T12:15:55;0.90;99.90
52725;DHT22;38621;52.830;6.914;2022-12-11T12:19:02;0.90;99.90
52725;DHT22;38621;52.830;6.914;2022-12-11T12:21:34;0.90;99.90
52725;DHT22;38621;52.830;6.914;2022-12-11T12:27:31;0.80;99.90
52725;DHT22;38621;52.830;6.914;2022-12-11T12:30:07;0.80;99.90
52725;DHT22;38621;52.830;6.914;2022-12-11T12:33:00;0.80;99.90
52725;DHT22;38621;52.830;6.914;2022-12-11T12:35:35;0.90;99.90
52725;DHT22;38621;52.830;6.914;2022-12-11T12:38:06;0.80;99.90
52725;DHT22;38621;52.830;6.914;2022-12-11T12:41:03;0.90;99.90
52725;DHT22;38621;52.830;6.914;2022-12-11T12:44:15;0.90;99.90
52725;DHT22;38621;52.830;6.914;2022-12-11T12:46:48;0.80;99.90
52725;DHT22;38621;52.830;6.914;2022-12-11T12:49:23;0.90;99.90
52725;DHT22;38621;52.830;6.914;2022-12-11T12:51:50;0.90;99.90
52725;DHT22;38621;52.830;6.914;2022-12-11T12:54:17;0.90;99.90
52725;DHT22;38621;52.830;6.914;2022-12-11T12:56:45;0.90;99.90
52725;DHT22;38621;52.830;6.914;2022-12-11T12:59:23;0.90;99.90
52725;DHT22;38621;52.830;6.914;2022-12-11T13:01:51;0.90;99.90
52725;DHT22;38621;52.830;6.914;2022-12-11T13:04:54;1.10;99.90
52725;DHT22;38621;52.830;6.914;2022-12-11T13:07:20;0.90;99.90
52725;DHT22;38621;52.830;6.914;2022-12-11T13:10:06;0.90;99.90
52725;DHT22;38621;52.830;6.914;2022-12-11T13:12:52;1.00;99.90
52725;DHT22;38621;52.830;6.914;2022-12-11T13:17:58;1.00;99.90
52725;DHT22;38621;52.830;6.914;2022-12-11T13:20:27;1.00;99.90
52725;DHT22;38621;52.830;6.914;2022-12-11T13:22:55;1.00;99.90
52725;DHT22;38621;52.830;6.914;2022-12-11T13:25:48;1.00;99.90
52725;DHT22;38621;52.830;6.914;2022-12-11T13:28:28;1.00;99.90
52725;DHT22;38621;52.830;6.914;2022-12-11T13:31:03;1.00;99.90
52725;DHT22;38621;52.830;6.914;2022-12-11T13:33:30;1.00;99.90
52725;DHT22;38621;52.830;6.914;2022-12-11T13:38:47;0.90;99.90
52725;DHT22;38621;52.830;6.914;2022-12-11T13:41:13;0.90;99.90
52725;DHT22;38621;52.830;6.914;2022-12-11T13:43:41;1.10;99.90
52725;DHT22;38621;52.830;6.914;2022-12-11T13:46:11;0.90;99.90
52725;DHT22;38621;52.830;6.914;2022-12-11T13:48:43;0.90;99.90
52725;DHT22;38621;52.830;6.914;2022-12-11T13:51:19;0.90;99.90
52725;DHT22;38621;52.830;6.914;2022-12-11T13:53:45;0.90;99.90
52725;DHT22;38621;52.830;6.914;2022-12-11T13:56:19;0.90;99.90
52725;DHT22;38621;52.830;6.914;2022-12-11T13:58:45;0.90;99.90
52725;DHT22;38621;52.830;6.914;2022-12-11T14:01:20;0.90;99.90
52725;DHT22;38621;52.830;6.914;2022-12-11T14:04:07;0.90;99.90
52725;DHT22;38621;52.830;6.914;2022-12-11T14:06:35;1.00;99.90
52725;DHT22;38621;52.830;6.914;2022-12-11T14:09:03;1.00;99.90
52725;DHT22;38621;52.830;6.914;2022-12-11T14:11:34;1.00;99.90
52725;DHT22;38621;52.830;6.914;2022-12-11T14:14:03;1.90;99.90
52725;DHT22;38621;52.830;6.914;2022-12-11T14:16:31;1.00;99.90
52725;DHT22;38621;52.830;6.914;2022-12-11T14:19:05;1.00;99.90
52725;DHT22;38621;52.830;6.914;2022-12-11T14:21:32;1.00;99.90
52725;DHT22;38621;52.830;6.914;2022-12-11T14:24:00;1.00;99.90
52725;DHT22;38621;52.830;6.914;2022-12-11T14:26:33;1.20;99.90
52725;DHT22;38621;52.830;6.914;2022-12-11T14:29:00;1.00;99.90
52725;DHT22;38621;52.830;6.914;2022-12-11T14:31:36;1.00;99.90
52725;DHT22;38621;52.830;6.914;2022-12-11T14:34:10;1.00;99.90
52725;DHT22;38621;52.830;6.914;2022-12-11T14:36:38;1.00;99.90
52725;DHT22;38621;52.830;6.914;2022-12-11T14:39:12;1.00;99.90
52725;DHT22;38621;52.830;6.914;2022-12-11T14:41:58;1.30;99.90
52725;DHT22;38621;52.830;6.914;2022-12-11T14:44:27;1.10;99.90
52725;DHT22;38621;52.830;6.914;2022-12-11T14:47:12;1.00;99.90
52725;DHT22;38621;52.830;6.914;2022-12-11T14:49:51;1.00;99.90
52725;DHT22;38621;52.830;6.914;2022-12-11T14:52:26;1.00;99.90
52725;DHT22;38621;52.830;6.914;2022-12-11T14:55:46;1.00;99.90
52725;DHT22;38621;52.830;6.914;2022-12-11T14:57:48;1.00;99.90
52725;DHT22;38621;52.830;6.914;2022-12-11T15:00:26;0.90;99.90
52725;DHT22;38621;52.830;6.914;2022-12-11T15:03:18;0.90;99.90
52725;DHT22;38621;52.830;6.914;2022-12-11T15:05:50;0.90;99.90
52725;DHT22;38621;52.830;6.914;2022-12-11T15:08:23;0.80;99.90
52725;DHT22;38621;52.830;6.914;2022-12-11T15:11:14;0.80;99.90
52725;DHT22;38621;52.830;6.914;2022-12-11T15:13:55;0.70;99.90
52725;DHT22;38621;52.830;6.914;2022-12-11T15:16:24;0.60;99.90
52725;DHT22;38621;52.830;6.914;2022-12-11T15:18:52;0.60;99.90
52725;DHT22;38621;52.830;6.914;2022-12-11T15:21:30;0.60;99.90
52725;DHT22;38621;52.830;6.914;2022-12-11T15:23:58;0.60;99.90
52725;DHT22;38621;52.830;6.914;2022-12-11T15:29:02;0.50;99.90
52725;DHT22;38621;52.830;6.914;2022-12-11T15:31:30;0.60;99.90
52725;DHT22;38621;52.830;6.914;2022-12-11T15:33:57;0.60;99.90
52725;DHT22;38621;52.830;6.914;2022-12-11T15:38:55;0.70;99.90
52725;DHT22;38621;52.830;6.914;2022-12-11T15:41:21;0.70;99.90
52725;DHT22;38621;52.830;6.914;2022-12-11T15:43:56;0.70;99.90
52725;DHT22;38621;52.830;6.914;2022-12-11T15:46:22;0.80;99.90
52725;DHT22;38621;52.830;6.914;2022-12-11T15:48:48;0.80;99.90
52725;DHT22;38621;52.830;6.914;2022-12-11T15:51:15;0.80;99.90
52725;DHT22;38621;52.830;6.914;2022-12-11T15:53:41;0.80;99.90
52725;DHT22;38621;52.830;6.914;2022-12-11T15:56:12;0.80;99.90
52725;DHT22;38621;52.830;6.914;2022-12-11T15:58:38;0.90;99.90
52725;DHT22;38621;52.830;6.914;2022-12-11T16:01:04;0.80;99.90
52725;DHT22;38621;52.830;6.914;2022-12-11T16:03:30;0.90;99.90
52725;DHT22;38621;52.830;6.914;2022-12-11T16:05:55;0.90;99.90
52725;DHT22;38621;52.830;6.914;2022-12-11T16:08:22;0.90;99.90
52725;DHT22;38621;52.830;6.914;2022-12-11T16:10:50;0.90;99.90
52725;DHT22;38621;52.830;6.914;2022-12-11T16:13:16;0.90;99.90
52725;DHT22;38621;52.830;6.914;2022-12-11T16:15:44;0.90;99.90
52725;DHT22;38621;52.830;6.914;2022-12-11T16:18:17;0.90;99.90
52725;DHT22;38621;52.830;6.914;2022-12-11T16:20:44;0.90;99.90
52725;DHT22;38621;52.830;6.914;2022-12-11T16:23:11;0.90;99.90
52725;DHT22;38621;52.830;6.914;2022-12-11T16:25:39;0.90;99.90
52725;DHT22;38621;52.830;6.914;2022-12-11T16:28:05;0.90;99.90
52725;DHT22;38621;52.830;6.914;2022-12-11T16:30:34;0.90;99.90
52725;DHT22;38621;52.830;6.914;2022-12-11T16:33:00;0.90;99.90
52725;DHT22;38621;52.830;6.914;2022-12-11T16:35:25;0.90;99.90
52725;DHT22;38621;52.830;6.914;2022-12-11T16:37:53;0.90;99.90
52725;DHT22;38621;52.830;6.914;2022-12-11T16:40:20;0.90;99.90
52725;DHT22;38621;52.830;6.914;2022-12-11T16:42:46;0.90;99.90
52725;DHT22;38621;52.830;6.914;2022-12-11T16:45:17;0.90;99.90
52725;DHT22;38621;52.830;6.914;2022-12-11T16:47:43;0.90;99.90
52725;DHT22;38621;52.830;6.914;2022-12-11T16:50:10;0.90;99.90
52725;DHT22;38621;52.830;6.914;2022-12-11T16:52:36;0.90;99.90
52725;DHT22;38621;52.830;6.914;2022-12-11T16:55:03;0.80;99.90
52725;DHT22;38621;52.830;6.914;2022-12-11T16:57:28;0.90;99.90
52725;DHT22;38621;52.830;6.914;2022-12-11T16:59:54;0.90;99.90
52725;DHT22;38621;52.830;6.914;2022-12-11T17:02:20;0.90;99.90
52725;DHT22;38621;52.830;6.914;2022-12-11T17:04:46;0.90;99.90
52725;DHT22;38621;52.830;6.914;2022-12-11T17:07:13;1.00;99.90
52725;DHT22;38621;52.830;6.914;2022-12-11T17:09:40;0.90;99.90
52725;DHT22;38621;52.830;6.914;2022-12-11T17:12:06;1.00;99.90
52725;DHT22;38621;52.830;6.914;2022-12-11T17:14:31;1.00;99.90
52725;DHT22;38621;52.830;6.914;2022-12-11T17:16:57;1.00;99.90
52725;DHT22;38621;52.830;6.914;2022-12-11T17:19:23;1.00;99.90
52725;DHT22;38621;52.830;6.914;2022-12-11T17:21:49;1.00;99.90
52725;DHT22;38621;52.830;6.914;2022-12-11T17:24:15;1.00;99.90
52725;DHT22;38621;52.830;6.914;2022-12-11T17:26:41;1.00;99.90